Time;durP1;ratioP1;P1;durP2;ratioP2;P2;SDS_P1;SDS_P2;PMS_P1;PMS_P2;Temp;Humidity;BMP_temperature;BMP_pressure;BME280_temperature;BME280_humidity;BME280_pressure;Samples;Min_cycle;Max_cycle;Signal;HPM_P1;HPM_P2
2024/04/08 00:01:37;;;;;;;0.10;0.10;;;;;;;;;;5437580;25;56474;-73
2024/04/08 00:04:02;;;;;;;0.57;0.30;;;;;;;;;;5438929;25;56420;-73
2024/04/08 00:06:27;;;;;;;0.30;0.20;;;;;;;;;;5436963;25;56392;-73
2024/04/08 00:08:52;;;;;;;0.30;0.30;;;;;;;;;;5439471;25;57578;-73
2024/04/08 00:11:17;;;;;;;0.30;0.30;;;;;;;;;;5436773;25;56769;-73
2024/04/08 00:13:43;;;;;;;0.20;0.20;;;;;;;;;;5437549;25;56733;-75
2024/04/08 00:16:08;;;;;;;0.50;0.20;;;;;;;;;;5433589;25;59863;-75
2024/04/08 00:18:33;;;;;;;0.93;0.10;;;;;;;;;;5432253;25;56644;-75
2024/04/08 00:20:59;;;;;;;0.20;0.20;;;;;;;;;;5435378;25;57655;-75
2024/04/08 00:23:24;;;;;;;0.70;0.50;;;;;;;;;;5439532;25;56488;-76
2024/04/08 00:25:49;;;;;;;0.20;0.20;;;;;;;;;;5437382;25;57106;-74
2024/04/08 00:28:14;;;;;;;0.35;0.30;;;;;;;;;;5435849;25;56577;-76
2024/04/08 00:30:40;;;;;;;0.30;0.30;;;;;;;;;;5435349;25;56539;-75
2024/04/08 00:33:05;;;;;;;0.43;0.35;;;;;;;;;;5432979;25;57108;-74
2024/04/08 00:35:31;;;;;;;0.20;0.20;;;;;;;;;;5438652;25;57806;-76
2024/04/08 00:37:56;;;;;;;0.38;0.28;;;;;;;;;;5437703;25;56603;-74
2024/04/08 00:40:21;;;;;;;0.38;0.20;;;;;;;;;;5437289;25;56640;-75
2024/04/08 00:42:46;;;;;;;0.83;0.27;;;;;;;;;;5438434;25;56644;-74
2024/04/08 00:45:12;;;;;;;0.10;0.10;;;;;;;;;;5437781;25;57276;-76
2024/04/08 00:47:37;;;;;;;0.37;0.37;;;;;;;;;;5436899;25;57844;-76
2024/04/08 00:50:02;;;;;;;0.33;0.33;;;;;;;;;;5436251;25;56508;-74
2024/04/08 00:52:27;;;;;;;0.57;0.30;;;;;;;;;;5433578;25;57279;-75
2024/04/08 00:54:53;;;;;;;0.63;0.30;;;;;;;;;;5435212;25;57759;-76
2024/04/08 00:57:18;;;;;;;0.60;0.27;;;;;;;;;;5440585;25;56589;-76
2024/04/08 00:59:43;;;;;;;0.17;0.17;;;;;;;;;;5434156;25;57149;-77
2024/04/08 01:02:08;;;;;;;0.50;0.35;;;;;;;;;;5438266;25;55999;-76
2024/04/08 01:04:34;;;;;;;0.10;0.10;;;;;;;;;;5433236;25;57135;-76
2024/04/08 01:06:59;;;;;;;0.20;0.20;;;;;;;;;;5438210;25;58711;-76
2024/04/08 01:09:25;;;;;;;0.22;0.22;;;;;;;;;;5440658;25;56477;-76
2024/04/08 01:11:50;;;;;;;0.30;0.20;;;;;;;;;;5438660;25;57596;-76
2024/04/08 01:14:15;;;;;;;0.10;0.10;;;;;;;;;;5437829;25;57586;-74
2024/04/08 01:16:40;;;;;;;0.50;0.30;;;;;;;;;;5440448;25;56456;-74
2024/04/08 01:19:05;;;;;;;0.23;0.23;;;;;;;;;;5436671;25;56999;-74
2024/04/08 01:21:31;;;;;;;0.20;0.20;;;;;;;;;;5438655;25;57828;-75
2024/04/08 01:23:56;;;;;;;0.30;0.10;;;;;;;;;;5440780;25;57950;-76
2024/04/08 01:26:21;;;;;;;0.20;0.20;;;;;;;;;;5440888;25;56366;-76
2024/04/08 01:28:46;;;;;;;0.30;0.30;;;;;;;;;;5441752;25;56480;-75
2024/04/08 01:31:14;;;;;;;0.30;0.30;;;;;;;;;;5441169;25;58233;-76
2024/04/08 01:33:40;;;;;;;0.22;0.10;;;;;;;;;;5437449;25;57887;-75
2024/04/08 01:36:05;;;;;;;0.55;0.30;;;;;;;;;;5440401;25;56499;-76
2024/04/08 01:38:31;;;;;;;0.57;0.43;;;;;;;;;;5438955;25;57166;-76
2024/04/08 01:40:56;;;;;;;0.23;0.20;;;;;;;;;;5441409;25;57755;-76
2024/04/08 01:43:22;;;;;;;0.73;0.28;;;;;;;;;;5440054;25;56345;-76
2024/04/08 01:45:47;;;;;;;0.30;0.30;;;;;;;;;;5435441;25;57829;-75
2024/04/08 01:48:12;;;;;;;0.50;0.33;;;;;;;;;;5436155;25;56422;-76
2024/04/08 01:50:37;;;;;;;0.20;0.20;;;;;;;;;;5437602;25;57199;-76
2024/04/08 01:53:02;;;;;;;0.17;0.10;;;;;;;;;;5436188;25;58199;-76
2024/04/08 01:55:28;;;;;;;0.30;0.27;;;;;;;;;;5437497;25;56396;-75
2024/04/08 01:57:53;;;;;;;0.40;0.30;;;;;;;;;;5435450;25;56778;-76
2024/04/08 02:00:19;;;;;;;0.20;0.20;;;;;;;;;;5437969;25;57828;-75
2024/04/08 02:02:44;;;;;;;0.57;0.50;;;;;;;;;;5434482;25;56597;-76
2024/04/08 02:05:09;;;;;;;0.25;0.25;;;;;;;;;;5440326;25;58872;-76
2024/04/08 02:07:34;;;;;;;0.53;0.53;;;;;;;;;;5439765;25;56716;-76
2024/04/08 02:10:00;;;;;;;1.05;0.30;;;;;;;;;;5439103;25;57321;-75
2024/04/08 02:12:26;;;;;;;0.35;0.30;;;;;;;;;;5438671;25;57647;-76
2024/04/08 02:14:51;;;;;;;0.43;0.30;;;;;;;;;;5441223;25;56642;-76
2024/04/08 02:17:16;;;;;;;0.30;0.30;;;;;;;;;;5437827;25;58169;-76
2024/04/08 02:19:41;;;;;;;0.30;0.30;;;;;;;;;;5436907;25;58543;-76
2024/04/08 02:22:06;;;;;;;0.77;0.10;;;;;;;;;;5440063;25;56613;-76
2024/04/08 02:24:31;;;;;;;0.10;0.10;;;;;;;;;;5440776;25;57536;-74
2024/04/08 02:26:57;;;;;;;0.30;0.30;;;;;;;;;;5441460;25;56726;-74
2024/04/08 02:29:22;;;;;;;0.25;0.20;;;;;;;;;;5436809;25;56896;-74
2024/04/08 02:31:47;;;;;;;0.27;0.27;;;;;;;;;;5434815;25;57643;-74
2024/04/08 02:34:13;;;;;;;0.30;0.30;;;;;;;;;;5435030;25;56516;-75
2024/04/08 02:36:38;;;;;;;0.30;0.20;;;;;;;;;;5438290;25;56677;-76
2024/04/08 02:39:04;;;;;;;0.13;0.13;;;;;;;;;;5435514;25;57730;-76
2024/04/08 02:41:29;;;;;;;0.20;0.20;;;;;;;;;;5439039;25;56498;-76
2024/04/08 02:43:54;;;;;;;0.35;0.35;;;;;;;;;;5437791;25;56438;-76
2024/04/08 02:46:19;;;;;;;0.10;0.10;;;;;;;;;;5440705;25;57768;-75
2024/04/08 02:48:45;;;;;;;0.40;0.40;;;;;;;;;;5438294;25;56501;-76
2024/04/08 02:51:10;;;;;;;0.30;0.30;;;;;;;;;;5434365;25;58331;-75
2024/04/08 02:53:36;;;;;;;0.30;0.30;;;;;;;;;;5439416;25;56495;-76
2024/04/08 02:56:02;;;;;;;0.35;0.30;;;;;;;;;;5435900;25;57141;-75
2024/04/08 02:58:27;;;;;;;0.32;0.20;;;;;;;;;;5437314;25;57695;-75
2024/04/08 03:00:52;;;;;;;0.30;0.30;;;;;;;;;;5435226;25;56446;-75
2024/04/08 03:03:18;;;;;;;0.37;0.37;;;;;;;;;;5436026;25;56478;-75
2024/04/08 03:05:43;;;;;;;0.40;0.32;;;;;;;;;;5436652;25;57788;-75
2024/04/08 03:08:09;;;;;;;0.43;0.43;;;;;;;;;;5439201;25;56475;-76
2024/04/08 03:10:34;;;;;;;0.23;0.17;;;;;;;;;;5436764;25;57454;-75
2024/04/08 03:12:59;;;;;;;0.13;0.13;;;;;;;;;;5436223;26;56455;-76
2024/04/08 03:15:24;;;;;;;0.30;0.30;;;;;;;;;;5438481;25;56702;-75
2024/04/08 03:17:49;;;;;;;0.20;0.20;;;;;;;;;;5435428;25;56727;-75
2024/04/08 03:20:14;;;;;;;0.20;0.20;;;;;;;;;;5438787;25;56541;-75
2024/04/08 03:22:40;;;;;;;0.53;0.40;;;;;;;;;;5436923;25;56366;-76
2024/04/08 03:25:05;;;;;;;0.30;0.30;;;;;;;;;;5439048;25;56392;-75
2024/04/08 03:27:30;;;;;;;0.40;0.20;;;;;;;;;;5438496;25;56522;-76
2024/04/08 03:29:55;;;;;;;0.30;0.17;;;;;;;;;;5436754;25;57013;-75
2024/04/08 03:32:20;;;;;;;0.20;0.20;;;;;;;;;;5434792;25;56869;-76
2024/04/08 03:34:46;;;;;;;0.23;0.23;;;;;;;;;;5436792;25;56555;-76
2024/04/08 03:37:11;;;;;;;0.47;0.47;;;;;;;;;;5436245;25;57690;-76
2024/04/08 03:39:36;;;;;;;1.23;0.47;;;;;;;;;;5438604;25;56438;-76
2024/04/08 03:42:01;;;;;;;0.50;0.50;;;;;;;;;;5438019;25;56634;-75
2024/04/08 03:44:26;;;;;;;0.40;0.40;;;;;;;;;;5435810;25;58797;-76
2024/04/08 03:46:52;;;;;;;0.23;0.23;;;;;;;;;;5436517;25;56458;-76
2024/04/08 03:49:17;;;;;;;0.93;0.35;;;;;;;;;;5440210;25;57091;-76
2024/04/08 03:51:42;;;;;;;0.20;0.20;;;;;;;;;;5436692;25;57798;-76
2024/04/08 03:54:07;;;;;;;0.30;0.10;;;;;;;;;;5439459;25;57020;-75
2024/04/08 03:56:32;;;;;;;0.60;0.40;;;;;;;;;;5436741;25;57679;-76
2024/04/08 03:58:58;;;;;;;0.20;0.20;;;;;;;;;;5435737;25;55975;-76
2024/04/08 04:01:23;;;;;;;0.25;0.25;;;;;;;;;;5434438;25;58240;-76
2024/04/08 04:03:48;;;;;;;0.20;0.20;;;;;;;;;;5436217;25;57030;-76
2024/04/08 04:06:14;;;;;;;0.20;0.20;;;;;;;;;;5435836;25;56965;-76
2024/04/08 04:08:39;;;;;;;0.25;0.25;;;;;;;;;;5436272;25;56533;-76
2024/04/08 04:11:04;;;;;;;0.50;0.30;;;;;;;;;;5435391;25;57012;-76
2024/04/08 04:13:29;;;;;;;0.17;0.17;;;;;;;;;;5440008;25;56391;-76
2024/04/08 04:15:54;;;;;;;0.40;0.40;;;;;;;;;;5436147;25;57776;-75
2024/04/08 04:18:20;;;;;;;0.52;0.20;;;;;;;;;;5437049;25;56657;-75
2024/04/08 04:20:45;;;;;;;0.20;0.20;;;;;;;;;;5439098;25;58095;-75
2024/04/08 04:23:11;;;;;;;0.30;0.30;;;;;;;;;;5438251;25;58490;-75
2024/04/08 04:25:36;;;;;;;0.15;0.15;;;;;;;;;;5440632;25;56566;-76
2024/04/08 04:28:01;;;;;;;0.20;0.20;;;;;;;;;;5436298;25;58102;-76
2024/04/08 04:30:27;;;;;;;0.10;0.10;;;;;;;;;;5438211;25;56811;-75
2024/04/08 04:32:52;;;;;;;0.30;0.30;;;;;;;;;;5437073;25;56736;-76
2024/04/08 04:35:17;;;;;;;0.10;0.10;;;;;;;;;;5438576;25;57208;-75
2024/04/08 04:37:43;;;;;;;0.57;0.43;;;;;;;;;;5434565;25;56704;-75
2024/04/08 04:40:08;;;;;;;0.20;0.20;;;;;;;;;;5439364;25;57212;-75
2024/04/08 04:42:34;;;;;;;0.68;0.68;;;;;;;;;;5437231;25;57605;-77
2024/04/08 04:44:59;;;;;;;0.57;0.50;;;;;;;;;;5435573;25;56669;-77
2024/04/08 04:47:24;;;;;;;0.60;0.60;;;;;;;;;;5441553;25;56263;-74
2024/04/08 04:49:50;;;;;;;1.75;0.70;;;;;;;;;;5439402;25;57667;-74
2024/04/08 04:52:15;;;;;;;0.68;0.57;;;;;;;;;;5440427;25;56541;-73
2024/04/08 04:54:40;;;;;;;0.65;0.35;;;;;;;;;;5441730;25;57318;-75
2024/04/08 04:57:05;;;;;;;1.15;0.50;;;;;;;;;;5440974;25;56543;-75
2024/04/08 04:59:31;;;;;;;0.80;0.40;;;;;;;;;;5435876;26;58565;-76
2024/04/08 05:01:56;;;;;;;3.05;0.40;;;;;;;;;;5438549;25;57005;-74
2024/04/08 05:04:21;;;;;;;5.38;1.17;;;;;;;;;;5435932;25;56768;-75
2024/04/08 05:06:46;;;;;;;4.77;1.20;;;;;;;;;;5436242;25;56595;-75
2024/04/08 05:09:11;;;;;;;2.40;1.00;;;;;;;;;;5438804;25;57058;-75
2024/04/08 05:11:37;;;;;;;2.93;1.30;;;;;;;;;;5439487;25;57263;-75
2024/04/08 05:14:02;;;;;;;1.97;1.20;;;;;;;;;;5436808;25;56466;-75
2024/04/08 05:16:28;;;;;;;3.30;0.73;;;;;;;;;;5439162;25;56670;-75
2024/04/08 05:18:53;;;;;;;3.30;1.07;;;;;;;;;;5436252;25;56424;-75
2024/04/08 05:21:18;;;;;;;3.03;1.13;;;;;;;;;;5438988;25;56697;-75
2024/04/08 05:23:44;;;;;;;1.57;1.10;;;;;;;;;;5440413;25;57674;-75
2024/04/08 05:26:09;;;;;;;4.13;0.82;;;;;;;;;;5439778;25;57494;-75
2024/04/08 05:28:34;;;;;;;3.07;0.70;;;;;;;;;;5441397;25;56725;-76
2024/04/08 05:31:00;;;;;;;1.43;0.90;;;;;;;;;;5441281;25;56567;-75
2024/04/08 05:33:25;;;;;;;1.77;0.93;;;;;;;;;;5438926;25;56364;-75
2024/04/08 05:35:50;;;;;;;1.75;0.90;;;;;;;;;;5432158;25;58509;-74
2024/04/08 05:38:15;;;;;;;1.98;1.15;;;;;;;;;;5443286;25;56647;-75
2024/04/08 05:40:41;;;;;;;4.13;1.20;;;;;;;;;;5436205;25;56416;-75
2024/04/08 05:43:07;;;;;;;1.38;0.80;;;;;;;;;;5441430;25;56492;-75
2024/04/08 05:45:32;;;;;;;0.93;0.93;;;;;;;;;;5440256;25;56430;-75
2024/04/08 05:47:57;;;;;;;2.13;1.17;;;;;;;;;;5438095;25;56500;-75
2024/04/08 05:50:23;;;;;;;1.67;1.03;;;;;;;;;;5437474;25;56454;-75
2024/04/08 05:52:49;;;;;;;3.78;0.90;;;;;;;;;;5436862;25;57224;-73
2024/04/08 05:55:14;;;;;;;1.13;1.00;;;;;;;;;;5439127;25;56807;-76
2024/04/08 05:57:39;;;;;;;1.05;0.60;;;;;;;;;;5440636;25;56494;-76
2024/04/08 06:00:05;;;;;;;0.75;0.60;;;;;;;;;;5438125;25;56233;-76
2024/04/08 06:02:30;;;;;;;3.53;1.80;;;;;;;;;;5438012;25;56457;-76
2024/04/08 06:04:55;;;;;;;2.47;1.35;;;;;;;;;;5439441;25;56341;-77
2024/04/08 06:07:21;;;;;;;1.33;1.10;;;;;;;;;;5434761;25;59995;-77
2024/04/08 06:09:46;;;;;;;2.77;0.80;;;;;;;;;;5439116;25;56404;-77
2024/04/08 06:12:11;;;;;;;1.20;0.87;;;;;;;;;;5437923;25;56735;-77
2024/04/08 06:14:36;;;;;;;1.33;0.90;;;;;;;;;;5438179;25;56140;-77
2024/04/08 06:17:01;;;;;;;0.93;0.83;;;;;;;;;;5438641;25;56474;-77
2024/04/08 06:19:26;;;;;;;1.37;0.77;;;;;;;;;;5441354;25;56602;-77
2024/04/08 06:21:52;;;;;;;1.60;0.70;;;;;;;;;;5438350;25;58636;-77
2024/04/08 06:24:17;;;;;;;0.73;0.60;;;;;;;;;;5441165;25;58168;-77
2024/04/08 06:26:42;;;;;;;2.83;0.97;;;;;;;;;;5436205;25;57332;-77
2024/04/08 06:29:07;;;;;;;1.65;0.93;;;;;;;;;;5435644;25;56659;-77
2024/04/08 06:31:33;;;;;;;1.40;0.93;;;;;;;;;;5438282;25;56866;-77
2024/04/08 06:33:58;;;;;;;1.00;0.82;;;;;;;;;;5438232;25;56492;-77
2024/04/08 06:36:23;;;;;;;1.55;0.80;;;;;;;;;;5438989;25;55980;-77
2024/04/08 06:38:48;;;;;;;1.00;0.88;;;;;;;;;;5439768;25;56983;-78
2024/04/08 06:41:15;;;;;;;1.45;0.70;;;;;;;;;;5439400;25;57468;-77
2024/04/08 06:43:40;;;;;;;1.58;0.60;;;;;;;;;;5437825;25;56713;-77
2024/04/08 06:46:05;;;;;;;1.37;0.70;;;;;;;;;;5440328;25;56833;-77
2024/04/08 06:48:31;;;;;;;3.03;1.20;;;;;;;;;;5437979;25;56579;-77
2024/04/08 06:50:57;;;;;;;0.70;0.70;;;;;;;;;;5439518;25;56334;-77
2024/04/08 06:53:23;;;;;;;1.80;0.98;;;;;;;;;;5434126;25;57617;-77
2024/04/08 06:55:49;;;;;;;1.15;0.95;;;;;;;;;;5442252;25;56321;-77
2024/04/08 06:58:18;;;;;;;1.37;1.27;;;;;;;;;;5436708;25;59438;-77
2024/04/08 07:00:44;;;;;;;1.10;0.85;;;;;;;;;;5438080;25;56875;-77
2024/04/08 07:03:10;;;;;;;1.25;0.88;;;;;;;;;;5437892;25;56769;-77
2024/04/08 07:05:35;;;;;;;2.30;0.70;;;;;;;;;;5438720;25;56606;-78
2024/04/08 07:08:00;;;;;;;0.95;0.55;;;;;;;;;;5440479;25;56226;-77
2024/04/08 07:10:25;;;;;;;2.70;0.95;;;;;;;;;;5442485;25;57338;-77
2024/04/08 07:12:51;;;;;;;0.97;0.90;;;;;;;;;;5435770;25;56721;-77
2024/04/08 07:15:16;;;;;;;1.20;0.87;;;;;;;;;;5440615;25;56831;-77
2024/04/08 07:17:41;;;;;;;0.80;0.80;;;;;;;;;;5437225;25;56626;-77
2024/04/08 07:20:06;;;;;;;0.60;0.60;;;;;;;;;;5440122;25;56451;-77
2024/04/08 07:22:31;;;;;;;0.97;0.97;;;;;;;;;;5437218;25;56593;-77
2024/04/08 07:24:56;;;;;;;1.00;0.43;;;;;;;;;;5438460;25;58211;-77
2024/04/08 07:27:22;;;;;;;0.80;0.80;;;;;;;;;;5437325;25;56473;-77
2024/04/08 07:29:47;;;;;;;1.02;0.80;;;;;;;;;;5437639;25;56288;-77
2024/04/08 07:32:12;;;;;;;0.47;0.47;;;;;;;;;;5438629;25;58083;-77
2024/04/08 07:34:37;;;;;;;1.03;1.03;;;;;;;;;;5438599;25;56539;-77
2024/04/08 07:37:02;;;;;;;1.03;0.77;;;;;;;;;;5439263;25;57498;-78
2024/04/08 07:39:27;;;;;;;0.60;0.60;;;;;;;;;;5435236;25;56857;-77
2024/04/08 07:41:53;;;;;;;1.88;0.55;;;;;;;;;;5438288;25;56397;-77
2024/04/08 07:44:18;;;;;;;2.87;0.90;;;;;;;;;;5440777;25;57131;-77
2024/04/08 07:46:43;;;;;;;1.85;0.93;;;;;;;;;;5436863;25;56596;-77
2024/04/08 07:49:08;;;;;;;0.80;0.50;;;;;;;;;;5440005;25;57565;-77
2024/04/08 07:51:34;;;;;;;2.83;0.97;;;;;;;;;;5439059;25;57576;-77
2024/04/08 07:53:59;;;;;;;1.00;0.75;;;;;;;;;;5440453;25;56482;-77
2024/04/08 07:56:24;;;;;;;0.80;0.70;;;;;;;;;;5438763;25;57300;-77
2024/04/08 07:58:51;;;;;;;0.85;0.85;;;;;;;;;;5439580;25;57167;-77
2024/04/08 08:01:16;;;;;;;0.88;0.60;;;;;;;;;;5439743;25;56485;-77
2024/04/08 08:03:41;;;;;;;0.50;0.50;;;;;;;;;;5437469;25;57345;-77
2024/04/08 08:06:07;;;;;;;1.08;0.52;;;;;;;;;;5437176;25;58614;-77
2024/04/08 08:08:32;;;;;;;1.08;0.50;;;;;;;;;;5437809;25;56398;-77
2024/04/08 08:10:57;;;;;;;2.43;0.93;;;;;;;;;;5434652;25;56518;-77
2024/04/08 08:13:22;;;;;;;0.68;0.55;;;;;;;;;;5437351;25;56442;-77
2024/04/08 08:15:57;;;;;;;1.43;0.60;;;;;;;;;;5439383;25;57193;-76
2024/04/08 08:18:22;;;;;;;1.45;0.70;;;;;;;;;;5434263;25;57636;-76
2024/04/08 08:20:47;;;;;;;0.60;0.60;;;;;;;;;;5439862;25;56483;-76
2024/04/08 08:23:13;;;;;;;1.80;0.60;;;;;;;;;;5438220;25;56386;-76
2024/04/08 08:25:38;;;;;;;0.63;0.50;;;;;;;;;;5440569;25;57844;-77
2024/04/08 08:28:03;;;;;;;0.43;0.43;;;;;;;;;;5436834;25;56943;-77
2024/04/08 08:30:29;;;;;;;0.63;0.63;;;;;;;;;;5439129;25;57632;-77
2024/04/08 08:32:54;;;;;;;0.70;0.57;;;;;;;;;;5435493;25;56672;-77
2024/04/08 08:35:20;;;;;;;1.73;0.90;;;;;;;;;;5435936;25;57223;-77
2024/04/08 08:37:45;;;;;;;2.17;1.33;;;;;;;;;;5436869;25;56738;-77
2024/04/08 08:40:10;;;;;;;0.55;0.55;;;;;;;;;;5435032;25;56721;-77
2024/04/08 08:42:35;;;;;;;0.93;0.90;;;;;;;;;;5438207;25;56326;-77
2024/04/08 08:45:03;;;;;;;2.75;0.70;;;;;;;;;;5436782;25;58042;-77
2024/04/08 08:47:28;;;;;;;0.60;0.60;;;;;;;;;;5438280;25;56427;-77
2024/04/08 08:49:55;;;;;;;0.93;0.43;;;;;;;;;;5434819;25;57105;-77
2024/04/08 08:52:20;;;;;;;0.80;0.50;;;;;;;;;;5437329;25;56387;-77
2024/04/08 08:54:45;;;;;;;0.82;0.60;;;;;;;;;;5437743;25;58108;-77
2024/04/08 08:57:11;;;;;;;0.67;0.67;;;;;;;;;;5436870;25;57633;-77
2024/04/08 08:59:37;;;;;;;0.70;0.50;;;;;;;;;;5436920;25;56539;-78
2024/04/08 09:02:04;;;;;;;1.17;1.08;;;;;;;;;;5437172;25;56973;-77
2024/04/08 09:04:29;;;;;;;0.50;0.47;;;;;;;;;;5438068;25;57606;-77
2024/04/08 09:06:54;;;;;;;0.75;0.70;;;;;;;;;;5437818;25;56715;-77
2024/04/08 09:09:20;;;;;;;0.30;0.30;;;;;;;;;;5435013;25;57545;-77
2024/04/08 09:11:46;;;;;;;0.70;0.70;;;;;;;;;;5436048;25;58758;-77
2024/04/08 09:14:12;;;;;;;0.60;0.60;;;;;;;;;;5437199;25;56360;-77
2024/04/08 09:16:37;;;;;;;0.47;0.47;;;;;;;;;;5435969;25;58333;-77
2024/04/08 09:19:02;;;;;;;0.55;0.50;;;;;;;;;;5434775;25;56433;-77
2024/04/08 09:21:28;;;;;;;0.70;0.60;;;;;;;;;;5435786;25;57217;-77
2024/04/08 09:24:06;;;;;;;0.77;0.70;;;;;;;;;;5436343;25;57952;-76
2024/04/08 09:26:31;;;;;;;0.50;0.50;;;;;;;;;;5432197;25;56458;-76
2024/04/08 09:28:57;;;;;;;0.98;0.47;;;;;;;;;;5435177;25;58098;-76
2024/04/08 09:31:22;;;;;;;0.60;0.60;;;;;;;;;;5439808;25;57746;-76
2024/04/08 09:33:48;;;;;;;0.83;0.60;;;;;;;;;;5441071;25;57290;-76
2024/04/08 09:36:14;;;;;;;0.63;0.63;;;;;;;;;;5438505;25;57739;-76
2024/04/08 09:38:40;;;;;;;0.50;0.50;;;;;;;;;;5437660;25;56442;-76
2024/04/08 09:41:06;;;;;;;0.50;0.50;;;;;;;;;;5438415;25;56893;-76
2024/04/08 09:43:31;;;;;;;1.98;0.75;;;;;;;;;;5437028;25;56779;-76
2024/04/08 09:45:58;;;;;;;0.40;0.40;;;;;;;;;;5440348;25;56218;-76
2024/04/08 09:48:24;;;;;;;0.40;0.40;;;;;;;;;;5435713;25;58110;-76
2024/04/08 09:50:50;;;;;;;0.52;0.52;;;;;;;;;;5438491;25;57597;-74
2024/04/08 09:53:15;;;;;;;0.77;0.43;;;;;;;;;;5435309;25;56478;-74
2024/04/08 09:55:40;;;;;;;0.53;0.53;;;;;;;;;;5440278;25;56506;-76
2024/04/08 09:58:08;;;;;;;0.38;0.38;;;;;;;;;;5436821;25;56654;-76
2024/04/08 10:00:34;;;;;;;1.38;1.27;;;;;;;;;;5439026;25;57301;-76
2024/04/08 10:03:03;;;;;;;0.63;0.52;;;;;;;;;;5437104;25;58127;-76
2024/04/08 10:05:29;;;;;;;0.70;0.70;;;;;;;;;;5438827;25;56463;-75
2024/04/08 10:07:54;;;;;;;1.90;0.93;;;;;;;;;;5432968;25;57148;-75
2024/04/08 10:10:19;;;;;;;0.50;0.50;;;;;;;;;;5440728;25;57869;-75
2024/04/08 10:12:45;;;;;;;1.17;0.98;;;;;;;;;;5436925;25;56314;-76
2024/04/08 10:15:14;;;;;;;0.70;0.63;;;;;;;;;;5438061;25;58200;-75
2024/04/08 10:17:43;;;;;;;0.80;0.80;;;;;;;;;;5434446;25;57703;-75
2024/04/08 10:20:11;;;;;;;0.70;0.70;;;;;;;;;;5438691;25;56383;-75
2024/04/08 10:22:38;;;;;;;0.60;0.60;;;;;;;;;;5434049;25;57920;-76
2024/04/08 10:25:03;;;;;;;0.90;0.70;;;;;;;;;;5439078;25;56648;-75
2024/04/08 10:27:28;;;;;;;1.17;0.53;;;;;;;;;;5442197;25;57214;-75
2024/04/08 10:29:56;;;;;;;1.20;0.70;;;;;;;;;;5432083;25;58637;-75
2024/04/08 10:32:22;;;;;;;1.38;0.55;;;;;;;;;;5440962;25;56516;-75
2024/04/08 10:34:47;;;;;;;1.73;0.60;;;;;;;;;;5437126;25;58126;-77
2024/04/08 10:37:12;;;;;;;0.65;0.65;;;;;;;;;;5437904;25;57769;-77
2024/04/08 10:39:38;;;;;;;0.60;0.55;;;;;;;;;;5437652;25;56667;-77
2024/04/08 10:42:16;;;;;;;1.38;0.90;;;;;;;;;;5438738;25;56829;-77
2024/04/08 10:44:42;;;;;;;0.45;0.45;;;;;;;;;;5439952;25;56523;-77
2024/04/08 10:47:07;;;;;;;0.50;0.50;;;;;;;;;;5438995;25;56382;-76
2024/04/08 10:49:33;;;;;;;0.80;0.80;;;;;;;;;;5439503;25;56810;-76
2024/04/08 10:51:58;;;;;;;0.82;0.70;;;;;;;;;;5436658;25;56466;-77
2024/04/08 10:54:24;;;;;;;0.40;0.40;;;;;;;;;;5440790;25;56517;-77
2024/04/08 10:56:49;;;;;;;0.67;0.57;;;;;;;;;;5435929;25;56734;-77
2024/04/08 10:59:14;;;;;;;0.50;0.50;;;;;;;;;;5438356;25;56410;-77
2024/04/08 11:01:39;;;;;;;0.90;0.57;;;;;;;;;;5435943;25;56718;-76
2024/04/08 11:04:04;;;;;;;1.53;0.60;;;;;;;;;;5438734;25;55924;-77
2024/04/08 11:06:31;;;;;;;0.60;0.60;;;;;;;;;;5439023;25;57618;-76
2024/04/08 11:08:56;;;;;;;0.50;0.50;;;;;;;;;;5437055;25;56856;-76
2024/04/08 11:11:25;;;;;;;0.60;0.57;;;;;;;;;;5439672;25;56320;-77
2024/04/08 11:13:50;;;;;;;0.50;0.50;;;;;;;;;;5438463;25;57064;-77
2024/04/08 11:16:16;;;;;;;0.43;0.43;;;;;;;;;;5438599;25;57058;-77
2024/04/08 11:18:41;;;;;;;0.82;0.50;;;;;;;;;;5436816;25;56323;-77
2024/04/08 11:21:06;;;;;;;0.40;0.40;;;;;;;;;;5439333;25;57570;-77
2024/04/08 11:23:32;;;;;;;0.60;0.60;;;;;;;;;;5437425;25;56228;-77
2024/04/08 11:25:57;;;;;;;0.40;0.40;;;;;;;;;;5440800;25;57303;-76
2024/04/08 11:28:23;;;;;;;0.60;0.60;;;;;;;;;;5437651;25;57820;-77
2024/04/08 11:30:48;;;;;;;0.50;0.50;;;;;;;;;;5438201;25;56440;-77
2024/04/08 11:33:13;;;;;;;0.70;0.70;;;;;;;;;;5438286;25;56470;-77
2024/04/08 11:35:40;;;;;;;0.30;0.30;;;;;;;;;;5435501;25;58150;-76
2024/04/08 11:38:09;;;;;;;0.35;0.35;;;;;;;;;;5437569;25;56404;-77
2024/04/08 11:40:34;;;;;;;0.65;0.65;;;;;;;;;;5436667;25;57234;-77
2024/04/08 11:42:59;;;;;;;0.30;0.30;;;;;;;;;;5439111;25;57534;-77
2024/04/08 11:45:28;;;;;;;0.60;0.60;;;;;;;;;;5439481;25;57162;-77
2024/04/08 11:47:53;;;;;;;0.40;0.32;;;;;;;;;;5435120;25;57796;-77
2024/04/08 11:50:18;;;;;;;0.43;0.43;;;;;;;;;;5437250;25;56286;-76
2024/04/08 11:52:43;;;;;;;0.60;0.43;;;;;;;;;;5438699;25;57253;-76
2024/04/08 11:55:08;;;;;;;0.23;0.23;;;;;;;;;;5436322;25;57598;-77
2024/04/08 11:57:33;;;;;;;1.20;0.75;;;;;;;;;;5440943;25;56448;-77
2024/04/08 11:59:59;;;;;;;0.87;0.53;;;;;;;;;;5437903;25;56523;-77
2024/04/08 12:02:24;;;;;;;0.40;0.40;;;;;;;;;;5439890;25;57768;-76
2024/04/08 12:04:49;;;;;;;0.45;0.32;;;;;;;;;;5438102;25;56389;-77
2024/04/08 12:07:15;;;;;;;0.60;0.60;;;;;;;;;;5437575;25;57771;-77
2024/04/08 12:09:44;;;;;;;0.70;0.70;;;;;;;;;;5438450;25;56462;-76
2024/04/08 12:12:13;;;;;;;1.42;0.35;;;;;;;;;;5439136;25;57579;-76
2024/04/08 12:14:38;;;;;;;0.57;0.50;;;;;;;;;;5436434;25;57926;-77
2024/04/08 12:17:03;;;;;;;0.40;0.40;;;;;;;;;;5437172;25;56399;-77
2024/04/08 12:19:28;;;;;;;0.60;0.30;;;;;;;;;;5437703;25;56654;-77
2024/04/08 12:21:53;;;;;;;0.40;0.40;;;;;;;;;;5436073;25;58629;-77
2024/04/08 12:24:18;;;;;;;0.37;0.37;;;;;;;;;;5439387;25;56755;-77
2024/04/08 12:26:43;;;;;;;0.40;0.40;;;;;;;;;;5432853;25;56524;-77
2024/04/08 12:29:09;;;;;;;0.60;0.40;;;;;;;;;;5435947;25;56499;-76
2024/04/08 12:31:34;;;;;;;0.43;0.40;;;;;;;;;;5435431;25;56488;-77
2024/04/08 12:33:59;;;;;;;3.33;1.20;;;;;;;;;;5433250;25;56144;-76
2024/04/08 12:36:24;;;;;;;1.10;1.00;;;;;;;;;;5435369;25;56360;-77
2024/04/08 12:38:49;;;;;;;0.90;0.80;;;;;;;;;;5436175;25;57159;-77
2024/04/08 12:41:15;;;;;;;1.07;0.57;;;;;;;;;;5438064;25;56570;-77
2024/04/08 12:43:42;;;;;;;2.97;0.90;;;;;;;;;;5435556;25;56657;-77
2024/04/08 12:46:07;;;;;;;3.13;1.02;;;;;;;;;;5436073;25;58177;-77
2024/04/08 12:48:32;;;;;;;1.25;0.55;;;;;;;;;;5435379;25;57141;-76
2024/04/08 12:50:58;;;;;;;1.13;0.70;;;;;;;;;;5438455;25;57274;-77
2024/04/08 12:53:23;;;;;;;1.50;0.70;;;;;;;;;;5432143;25;57587;-77
2024/04/08 12:55:50;;;;;;;2.83;1.00;;;;;;;;;;5437477;25;56364;-77
2024/04/08 12:58:16;;;;;;;1.10;0.65;;;;;;;;;;5437140;25;58071;-77
2024/04/08 13:00:41;;;;;;;1.17;0.68;;;;;;;;;;5436035;25;58601;-77
2024/04/08 13:03:06;;;;;;;0.45;0.45;;;;;;;;;;5436656;25;57163;-77
2024/04/08 13:05:31;;;;;;;1.70;0.30;;;;;;;;;;5441729;25;57497;-75
2024/04/08 13:07:57;;;;;;;0.93;0.93;;;;;;;;;;5438717;25;57679;-75
2024/04/08 13:10:22;;;;;;;0.82;0.75;;;;;;;;;;5434225;25;56497;-75
2024/04/08 13:12:48;;;;;;;3.88;0.80;;;;;;;;;;5436425;25;58488;-75
2024/04/08 13:15:13;;;;;;;0.60;0.60;;;;;;;;;;5439066;25;56272;-75
2024/04/08 13:17:38;;;;;;;2.65;0.82;;;;;;;;;;5439071;25;57145;-75
2024/04/08 13:20:04;;;;;;;2.83;0.83;;;;;;;;;;5442482;25;57748;-75
2024/04/08 13:22:29;;;;;;;0.60;0.60;;;;;;;;;;5438898;25;56432;-75
2024/04/08 13:24:54;;;;;;;0.60;0.60;;;;;;;;;;5438381;25;57311;-75
2024/04/08 13:27:19;;;;;;;0.77;0.77;;;;;;;;;;5440653;25;57706;-76
2024/04/08 13:29:45;;;;;;;2.33;1.10;;;;;;;;;;5439205;25;56586;-75
2024/04/08 13:32:11;;;;;;;2.78;0.73;;;;;;;;;;5436685;25;57897;-75
2024/04/08 13:34:36;;;;;;;1.98;1.05;;;;;;;;;;5439598;25;56624;-75
2024/04/08 13:37:01;;;;;;;3.10;0.88;;;;;;;;;;5439485;25;59190;-76
2024/04/08 13:39:26;;;;;;;2.77;1.07;;;;;;;;;;5433371;25;57072;-75
2024/04/08 13:41:51;;;;;;;2.33;1.47;;;;;;;;;;5439402;25;56655;-75
2024/04/08 13:44:17;;;;;;;1.17;0.80;;;;;;;;;;5439454;25;57202;-75
2024/04/08 13:46:42;;;;;;;1.27;0.93;;;;;;;;;;5436844;25;57525;-75
2024/04/08 13:49:07;;;;;;;0.83;0.80;;;;;;;;;;5438723;25;56672;-73
2024/04/08 13:51:32;;;;;;;1.27;0.73;;;;;;;;;;5439311;25;56398;-74
2024/04/08 13:53:57;;;;;;;2.47;0.63;;;;;;;;;;5438674;25;56671;-74
2024/04/08 13:56:24;;;;;;;5.65;1.27;;;;;;;;;;5438548;25;57158;-74
2024/04/08 13:58:50;;;;;;;2.42;0.75;;;;;;;;;;5431896;25;57961;-71
2024/04/08 14:01:16;;;;;;;1.05;0.75;;;;;;;;;;5435289;25;56715;-72
2024/04/08 14:03:41;;;;;;;1.55;0.80;;;;;;;;;;5437629;25;56455;-73
2024/04/08 14:06:07;;;;;;;7.20;1.63;;;;;;;;;;5435071;26;58957;-78
2024/04/08 14:08:34;;;;;;;1.42;1.17;;;;;;;;;;5437615;25;55974;-78
2024/04/08 14:10:59;;;;;;;1.40;0.93;;;;;;;;;;5437517;25;57046;-77
2024/04/08 14:13:24;;;;;;;1.10;1.10;;;;;;;;;;5436445;25;57582;-77
2024/04/08 14:15:50;;;;;;;1.57;1.20;;;;;;;;;;5436210;25;58219;-74
2024/04/08 14:18:15;;;;;;;2.30;1.20;;;;;;;;;;5438293;25;57499;-75
2024/04/08 14:20:42;;;;;;;1.93;1.40;;;;;;;;;;5434267;25;56554;-76
2024/04/08 14:23:07;;;;;;;1.63;1.17;;;;;;;;;;5438483;25;58270;-74
2024/04/08 14:25:34;;;;;;;1.27;1.10;;;;;;;;;;5438163;25;56763;-74
2024/04/08 14:28:00;;;;;;;4.35;1.73;;;;;;;;;;5435701;25;56834;-74
2024/04/08 14:30:25;;;;;;;1.48;1.25;;;;;;;;;;5438365;25;57605;-72
2024/04/08 14:32:50;;;;;;;5.88;1.00;;;;;;;;;;5436077;25;57504;-75